Alcova, Wyoming
Current Conditions -  °F | °C
As of 12:53 AM on Friday 24 Oct 2014 (Local Time) from KCPR Reporting Station
Clear Clear  
Wind Chill: 52°   Ceiling: Unl
Heat Index: 52°   Visibility: 10mi
Dew Point: 28°   Wind: 15mph
Humidity: 40%   Direction: 240°WSW
Pressure: 30.04"   Gusts: NA
Location:  42.55°N, 106.72°W
Report Text: KCPR 240653Z AUTO 24013KT 10SM CLR 11/M02 A3004 RMK AO2 SLP125 T01111022 402170006
Loading
Personal Weather Stations






























Interactive Weather Map
Tropical Storm Tracking
New forecast layout! Learn more

10-Day Weather Forecast

Advertisements
Track Severe Weather on mobile